Time;durP1;ratioP1;P1;durP2;ratioP2;P2;SDS_P1;SDS_P2;PMS_P1;PMS_P2;Temp;Humidity;BMP_temperature;BMP_pressure;BME280_temperature;BME280_humidity;BME280_pressure;Samples;Min_cycle;Max_cycle;Signal;HPM_P1;HPM_P2
2022/09/27 00:02:14;;;;;;;3.75;1.13;;;12.30;99.90;;;;;;4931300;29;20048;-85
2022/09/27 00:04:40;;;;;;;5.50;2.88;;;12.30;99.90;;;;;;4931728;29;20028;-85
2022/09/27 00:07:06;;;;;;;2.47;1.60;;;12.30;99.90;;;;;;4931822;29;20106;-86
2022/09/27 00:09:32;;;;;;;1.48;1.23;;;12.30;99.90;;;;;;4931646;29;20040;-86
2022/09/27 00:11:58;;;;;;;1.15;1.15;;;12.30;99.90;;;;;;4931263;29;20032;-86
2022/09/27 00:14:24;;;;;;;2.88;1.98;;;12.30;99.90;;;;;;4915552;29;20043;-86
2022/09/27 00:16:50;;;;;;;3.50;1.83;;;12.30;99.90;;;;;;4931563;29;20115;-86
2022/09/27 00:19:20;;;;;;;1.75;1.38;;;12.30;99.90;;;;;;4931395;29;20039;-86
2022/09/27 00:21:47;;;;;;;4.05;1.95;;;12.30;99.90;;;;;;4931272;29;20056;-86
2022/09/27 00:24:15;;;;;;;1.40;1.30;;;12.30;99.90;;;;;;4931434;29;20028;-86
2022/09/27 00:26:42;;;;;;;2.55;1.85;;;12.30;99.90;;;;;;4930767;29;20032;-86
2022/09/27 00:29:09;;;;;;;2.97;2.15;;;12.30;99.90;;;;;;4914655;29;20063;-86
2022/09/27 00:31:36;;;;;;;2.30;1.40;;;12.30;99.90;;;;;;4930565;29;20027;-86
2022/09/27 00:34:04;;;;;;;4.40;1.38;;;12.30;99.90;;;;;;4914734;29;20107;-86
2022/09/27 00:36:31;;;;;;;6.22;1.23;;;12.30;99.90;;;;;;4932265;29;20052;-86
2022/09/27 00:38:59;;;;;;;0.95;0.80;;;12.30;99.90;;;;;;4930890;29;20103;-86
2022/09/27 00:41:33;;;;;;;4.00;1.25;;;12.30;99.90;;;;;;4931132;29;20029;-87
2022/09/27 00:44:21;;;;;;;1.27;0.95;;;12.20;99.90;;;;;;4931521;29;20028;-86
2022/09/27 00:47:01;;;;;;;1.33;0.90;;;12.30;99.90;;;;;;4911773;29;20074;-86
2022/09/27 00:49:37;;;;;;;4.03;1.00;;;12.20;99.90;;;;;;4931608;29;20400;-87
2022/09/27 00:52:14;;;;;;;2.08;1.20;;;12.20;99.90;;;;;;4931695;29;20047;-86
2022/09/27 00:54:43;;;;;;;4.72;1.58;;;12.20;99.90;;;;;;4932179;29;20036;-86
2022/09/27 00:57:10;;;;;;;8.55;2.00;;;12.20;99.90;;;;;;4915950;29;20492;-86
2022/09/27 01:00:03;;;;;;;1.60;1.10;;;12.20;99.90;;;;;;4931366;29;20050;-86
2022/09/27 01:02:30;;;;;;;6.97;2.42;;;12.20;99.90;;;;;;4931510;29;20024;-86
2022/09/27 01:04:57;;;;;;;1.95;0.98;;;12.20;99.90;;;;;;4931257;29;20031;-86
2022/09/27 01:07:22;;;;;;;1.52;0.80;;;12.20;99.90;;;;;;4930980;29;20048;-87
2022/09/27 01:09:49;;;;;;;1.55;0.95;;;12.20;99.90;;;;;;4930744;29;20121;-87
2022/09/27 01:12:32;;;;;;;5.78;1.48;;;12.20;99.90;;;;;;4914846;29;20040;-86
2022/09/27 01:15:01;;;;;;;4.80;0.50;;;12.20;99.90;;;;;;4914452;29;20109;-86
2022/09/27 01:17:34;;;;;;;5.88;1.52;;;12.20;99.90;;;;;;4914786;29;20036;-86
2022/09/27 01:20:15;;;;;;;0.95;0.75;;;12.20;99.90;;;;;;4914876;29;20043;-86
2022/09/27 01:22:55;;;;;;;1.98;1.65;;;12.20;99.90;;;;;;4930946;29;20036;-86
2022/09/27 01:25:27;;;;;;;;;;;12.20;99.90;;;;;;4931179;29;20110;-86
2022/09/27 01:28:26;;;;;;;3.92;1.13;;;12.20;99.90;;;;;;4914597;29;20033;-86
2022/09/27 01:31:16;;;;;;;1.60;1.13;;;12.20;99.90;;;;;;4930646;29;20501;-86
2022/09/27 01:33:49;;;;;;;1.05;1.02;;;12.20;99.90;;;;;;4930405;29;20028;-86
2022/09/27 01:36:24;;;;;;;2.65;1.65;;;12.20;99.90;;;;;;4914254;29;20035;-87
2022/09/27 01:38:56;;;;;;;8.27;1.00;;;12.20;99.90;;;;;;4930096;29;20035;-86
2022/09/27 01:41:46;;;;;;;0.82;0.82;;;12.10;99.90;;;;;;4914680;29;20035;-86
2022/09/27 01:44:32;;;;;;;1.15;1.02;;;12.20;99.90;;;;;;4930386;29;20028;-86
2022/09/27 01:47:17;;;;;;;4.93;1.27;;;12.20;99.90;;;;;;4915712;29;20389;-86
2022/09/27 01:49:53;;;;;;;0.95;0.95;;;12.10;99.90;;;;;;4930972;29;20084;-86
2022/09/27 01:52:23;;;;;;;0.90;0.47;;;12.10;99.90;;;;;;4930234;29;20087;-86
2022/09/27 01:54:57;;;;;;;2.08;1.42;;;12.10;99.90;;;;;;4930301;29;20032;-85
2022/09/27 01:58:00;;;;;;;2.38;0.80;;;12.10;99.90;;;;;;4939088;29;20067;-86
2022/09/27 02:00:27;;;;;;;2.30;0.85;;;12.10;99.90;;;;;;4929648;29;20028;-86
2022/09/27 02:03:12;;;;;;;2.15;0.75;;;12.10;99.90;;;;;;4914303;29;20032;-86
2022/09/27 02:06:16;;;;;;;1.95;0.98;;;12.10;99.90;;;;;;4929969;29;20032;-86
2022/09/27 02:09:17;;;;;;;6.57;1.20;;;12.10;99.90;;;;;;4929742;29;20036;-86
2022/09/27 02:12:17;;;;;;;2.03;1.08;;;12.10;99.90;;;;;;4922124;29;20048;-86
2022/09/27 02:14:46;;;;;;;1.17;0.50;;;12.00;99.90;;;;;;4929650;29;20060;-86
2022/09/27 02:17:21;;;;;;;3.50;1.63;;;12.00;99.90;;;;;;4913547;29;20032;-86
2022/09/27 02:20:05;;;;;;;0.30;0.30;;;12.00;99.90;;;;;;4914134;29;20044;-86
2022/09/27 02:22:47;;;;;;;1.85;0.30;;;12.00;99.90;;;;;;4929640;29;20461;-86
2022/09/27 02:25:27;;;;;;;1.80;0.63;;;12.00;99.90;;;;;;4929470;29;20028;-86
2022/09/27 02:28:14;;;;;;;6.65;1.08;;;12.00;99.90;;;;;;4929632;29;20032;-86
2022/09/27 02:30:41;;;;;;;0.88;0.30;;;12.00;99.90;;;;;;4929839;29;20035;-86
2022/09/27 02:33:36;;;;;;;0.82;0.30;;;12.00;99.90;;;;;;4929710;29;20028;-86
2022/09/27 02:36:02;;;;;;;1.83;0.93;;;12.00;99.90;;;;;;4929859;29;20092;-86
2022/09/27 02:38:28;;;;;;;5.40;0.85;;;12.00;99.90;;;;;;4898376;29;20028;-86
2022/09/27 02:40:55;;;;;;;3.08;0.80;;;12.00;99.90;;;;;;4929796;29;20060;-87
2022/09/27 02:43:27;;;;;;;8.27;0.93;;;12.00;99.90;;;;;;4929714;29;20119;-86
2022/09/27 02:46:03;;;;;;;1.25;0.70;;;12.00;99.90;;;;;;4941761;29;20048;-86
2022/09/27 02:48:39;;;;;;;1.33;0.70;;;12.00;99.90;;;;;;4897651;29;20036;-86
2022/09/27 02:51:26;;;;;;;5.88;0.50;;;12.00;99.90;;;;;;4913757;29;20036;-86
2022/09/27 02:54:13;;;;;;;3.30;0.63;;;12.00;99.90;;;;;;4929456;29;20040;-86
2022/09/27 02:57:34;;;;;;;1.08;0.43;;;11.90;99.90;;;;;;4927357;29;20044;-86
2022/09/27 03:00:20;;;;;;;2.83;0.68;;;11.90;99.90;;;;;;4930850;29;20043;-85
2022/09/27 03:02:58;;;;;;;1.30;0.25;;;11.90;99.90;;;;;;4899775;29;20036;-85
2022/09/27 03:05:31;;;;;;;1.55;0.47;;;11.90;99.90;;;;;;4929563;29;20135;-85
2022/09/27 03:07:57;;;;;;;0.65;0.65;;;11.90;99.90;;;;;;4930595;29;20059;-86
2022/09/27 03:10:26;;;;;;;1.27;0.52;;;11.90;99.90;;;;;;4898452;29;20028;-85
2022/09/27 03:12:53;;;;;;;2.50;0.65;;;11.90;99.90;;;;;;4913452;29;20032;-85
2022/09/27 03:15:19;;;;;;;2.33;0.57;;;11.90;99.90;;;;;;4898237;29;20030;-85
2022/09/27 03:18:01;;;;;;;3.58;1.25;;;11.90;99.90;;;;;;4929674;29;20104;-85
2022/09/27 03:20:33;;;;;;;3.63;0.90;;;11.90;99.90;;;;;;4929381;29;20071;-85
2022/09/27 03:23:27;;;;;;;0.73;0.70;;;11.90;99.90;;;;;;4918767;29;20048;-86
2022/09/27 03:25:53;;;;;;;1.48;0.60;;;11.90;99.90;;;;;;4931883;29;20068;-85
2022/09/27 03:28:19;;;;;;;0.98;0.60;;;11.80;99.90;;;;;;4932553;29;20044;-85
2022/09/27 03:30:46;;;;;;;1.58;0.93;;;11.80;99.90;;;;;;4916458;29;20040;-85
2022/09/27 03:33:23;;;;;;;3.10;0.68;;;11.80;99.90;;;;;;4916948;29;20050;-86
2022/09/27 03:35:54;;;;;;;0.15;0.15;;;11.80;99.90;;;;;;4930757;29;20446;-85
2022/09/27 03:38:20;;;;;;;2.00;0.43;;;11.80;99.90;;;;;;4931480;29;20105;-85
2022/09/27 03:40:46;;;;;;;0.88;0.68;;;11.80;99.90;;;;;;4917226;29;20029;-86
2022/09/27 03:43:13;;;;;;;0.30;0.30;;;11.80;99.90;;;;;;4932842;29;20044;-85
2022/09/27 03:45:39;;;;;;;1.88;0.98;;;11.80;99.90;;;;;;4917120;29;20032;-85
2022/09/27 03:48:08;;;;;;;2.28;0.50;;;11.80;99.90;;;;;;4902526;29;20040;-85
2022/09/27 03:50:35;;;;;;;2.38;0.60;;;11.80;99.90;;;;;;4917007;29;20032;-85
2022/09/27 03:53:00;;;;;;;1.45;0.40;;;11.80;99.90;;;;;;4917292;29;20063;-85
2022/09/27 03:55:26;;;;;;;4.95;1.35;;;11.80;99.90;;;;;;4887403;29;20047;-86
2022/09/27 03:57:53;;;;;;;2.35;0.80;;;11.80;99.90;;;;;;4922530;29;20061;-85
2022/09/27 04:00:20;;;;;;;1.45;0.52;;;11.80;99.90;;;;;;4922506;29;20036;-86
2022/09/27 04:02:46;;;;;;;1.58;0.70;;;11.80;99.90;;;;;;4937515;29;20059;-86
2022/09/27 04:05:21;;;;;;;1.30;0.20;;;11.80;99.90;;;;;;4921759;29;20072;-85
2022/09/27 04:07:48;;;;;;;5.70;1.27;;;11.80;99.90;;;;;;4951160;29;20020;-85
2022/09/27 04:10:15;;;;;;;2.38;0.52;;;11.70;99.90;;;;;;4936675;29;20024;-85
2022/09/27 04:12:42;;;;;;;1.42;0.70;;;11.70;99.90;;;;;;4917785;29;20056;-85
2022/09/27 04:15:08;;;;;;;2.28;0.60;;;11.70;99.90;;;;;;4918268;29;20029;-85
2022/09/27 04:17:51;;;;;;;0.80;0.60;;;11.70;99.90;;;;;;4908133;29;20031;-86
2022/09/27 04:20:32;;;;;;;2.45;1.25;;;11.70;99.90;;;;;;4929378;29;20056;-85
2022/09/27 04:23:01;;;;;;;5.13;0.97;;;11.70;99.90;;;;;;4901546;29;20036;-85
2022/09/27 04:25:28;;;;;;;2.28;0.30;;;11.70;99.90;;;;;;4929841;29;20095;-85
2022/09/27 04:27:57;;;;;;;1.08;0.35;;;11.70;99.90;;;;;;4925982;29;20490;-85
2022/09/27 04:30:25;;;;;;;0.52;0.20;;;11.70;99.90;;;;;;4929908;29;20028;-85
2022/09/27 04:33:17;;;;;;;0.50;0.50;;;11.70;99.90;;;;;;4921377;29;20044;-85
2022/09/27 04:39:04;;;;;;;1.63;0.98;;;11.70;99.90;;;;;;4934205;29;20036;-84
2022/09/27 04:41:30;;;;;;;4.45;1.40;;;11.70;99.90;;;;;;4918418;29;20024;-84
2022/09/27 04:44:00;;;;;;;2.13;0.73;;;11.70;99.90;;;;;;4899900;29;20111;-83
2022/09/27 04:46:30;;;;;;;1.75;0.43;;;11.70;99.90;;;;;;4907112;29;20119;-83
2022/09/27 04:49:00;;;;;;;8.35;1.75;;;11.70;99.90;;;;;;4928825;29;20040;-84
2022/09/27 04:51:28;;;;;;;1.25;0.52;;;11.70;99.90;;;;;;4929218;29;20036;-84
2022/09/27 04:53:57;;;;;;;3.42;1.10;;;11.70;99.90;;;;;;4910826;29;20037;-84
2022/09/27 04:56:27;;;;;;;1.52;0.63;;;11.70;99.90;;;;;;4929116;29;20509;-84
2022/09/27 04:58:54;;;;;;;3.33;0.90;;;11.70;99.90;;;;;;4917467;29;20040;-84
2022/09/27 05:01:21;;;;;;;2.05;0.73;;;11.70;99.90;;;;;;4930023;29;20056;-85
2022/09/27 05:04:07;;;;;;;0.82;0.30;;;11.70;99.90;;;;;;4927128;29;20514;-85
2022/09/27 05:06:36;;;;;;;1.70;0.45;;;11.60;99.90;;;;;;4898935;29;20036;-84
2022/09/27 05:09:15;;;;;;;0.40;0.40;;;11.60;99.90;;;;;;4915188;29;20040;-84
2022/09/27 05:11:54;;;;;;;6.30;1.27;;;11.60;99.90;;;;;;4929830;29;20052;-84
2022/09/27 05:14:32;;;;;;;7.88;0.88;;;11.60;99.90;;;;;;4913325;29;20312;-84
2022/09/27 05:17:22;;;;;;;0.52;0.38;;;11.60;99.90;;;;;;4920259;29;20041;-84
2022/09/27 05:20:09;;;;;;;0.63;0.57;;;11.60;99.90;;;;;;4928784;29;20072;-84
2022/09/27 05:22:58;;;;;;;3.50;0.52;;;11.60;99.90;;;;;;4911454;29;20464;-84
2022/09/27 05:25:26;;;;;;;0.68;0.43;;;11.60;99.90;;;;;;4926201;29;20029;-84
2022/09/27 05:27:53;;;;;;;0.47;0.47;;;11.60;99.90;;;;;;4926159;29;20035;-85
2022/09/27 05:30:19;;;;;;;1.50;0.82;;;11.50;99.90;;;;;;4911901;29;20048;-84
2022/09/27 05:32:49;;;;;;;1.05;0.73;;;11.60;99.90;;;;;;4923434;29;20029;-85
2022/09/27 05:35:34;;;;;;;0.57;0.30;;;11.50;99.90;;;;;;4944161;29;20052;-84
2022/09/27 05:38:01;;;;;;;1.75;0.32;;;11.50;99.90;;;;;;4918023;29;20036;-84
2022/09/27 05:40:33;;;;;;;2.13;0.75;;;11.50;99.90;;;;;;4917727;29;20016;-84
2022/09/27 05:42:59;;;;;;;0.80;0.40;;;11.50;99.90;;;;;;4925381;29;20032;-85
2022/09/27 05:45:25;;;;;;;0.68;0.38;;;11.50;99.90;;;;;;4921095;29;20036;-84
2022/09/27 05:47:54;;;;;;;2.42;1.15;;;11.50;99.90;;;;;;4909366;29;20016;-85
2022/09/27 05:50:20;;;;;;;0.45;0.30;;;11.50;99.90;;;;;;4914380;29;20028;-84
2022/09/27 05:52:47;;;;;;;2.83;1.40;;;11.50;99.90;;;;;;4916288;29;20113;-84
2022/09/27 05:55:17;;;;;;;0.43;0.35;;;11.40;99.90;;;;;;4931468;29;20032;-84
2022/09/27 05:57:57;;;;;;;1.77;0.50;;;11.40;99.90;;;;;;4931392;29;20064;-84
2022/09/27 06:00:28;;;;;;;6.28;1.20;;;11.40;99.90;;;;;;4937879;29;20039;-84
2022/09/27 06:03:00;;;;;;;1.25;0.60;;;11.40;99.90;;;;;;4931411;29;20035;-84
2022/09/27 06:05:45;;;;;;;;;;;11.40;99.90;;;;;;4929610;29;20094;-84
2022/09/27 06:08:38;;;;;;;2.72;0.32;;;11.40;99.90;;;;;;4918150;29;19919;-84
2022/09/27 06:11:12;;;;;;;0.85;0.75;;;11.40;99.90;;;;;;4931427;29;20036;-84
2022/09/27 06:13:40;;;;;;;0.60;0.40;;;11.40;99.90;;;;;;4899898;29;20032;-84
2022/09/27 06:16:10;;;;;;;1.90;0.70;;;11.40;99.90;;;;;;4915998;29;20028;-85
2022/09/27 06:18:38;;;;;;;0.38;0.38;;;11.40;99.90;;;;;;4913241;29;20532;-83
2022/09/27 06:21:05;;;;;;;0.20;0.20;;;11.40;99.90;;;;;;4914771;29;20052;-84
2022/09/27 06:23:32;;;;;;;0.60;0.30;;;11.40;99.90;;;;;;4914859;29;20501;-84
2022/09/27 06:26:03;;;;;;;1.05;0.40;;;11.40;99.90;;;;;;4923173;29;20099;-84
2022/09/27 06:28:50;;;;;;;0.90;0.40;;;11.30;99.90;;;;;;4919146;29;20122;-84
2022/09/27 06:31:16;;;;;;;2.75;1.33;;;;;;;;;;4914843;29;20044;-84
2022/09/27 06:34:01;;;;;;;6.55;0.85;;;11.40;99.90;;;;;;4917717;29;20032;-84
2022/09/27 06:36:28;;;;;;;0.43;0.43;;;11.40;99.90;;;;;;4928352;29;20028;-83
2022/09/27 06:38:54;;;;;;;0.98;0.93;;;;;;;;;;4929116;29;20487;-84
2022/09/27 06:41:26;;;;;;;0.38;0.28;;;11.30;99.90;;;;;;4918243;29;20039;-84
2022/09/27 06:44:24;;;;;;;2.33;0.55;;;11.30;99.90;;;;;;4912472;29;20047;-84
2022/09/27 06:47:09;;;;;;;1.25;0.70;;;11.40;99.90;;;;;;4930203;29;20037;-83
2022/09/27 06:49:45;;;;;;;2.08;0.32;;;11.40;99.90;;;;;;4912282;29;20056;-84
2022/09/27 06:52:14;;;;;;;0.95;0.50;;;11.40;99.90;;;;;;4914573;29;20024;-83
2022/09/27 06:54:40;;;;;;;0.75;0.75;;;11.40;99.90;;;;;;4929474;29;20024;-83
2022/09/27 06:57:06;;;;;;;1.00;0.60;;;11.40;99.90;;;;;;4939027;29;20032;-84
2022/09/27 07:02:37;;;;;;;0.73;0.32;;;11.40;99.90;;;;;;4929638;29;20556;-84
2022/09/27 07:05:30;;;;;;;0.85;0.77;;;11.40;99.90;;;;;;4917915;29;20024;-86
2022/09/27 07:08:15;;;;;;;0.20;0.20;;;11.40;99.90;;;;;;4927063;29;20036;-85
2022/09/27 07:10:52;;;;;;;0.75;0.68;;;11.40;99.90;;;;;;4911298;29;20092;-85
2022/09/27 07:13:18;;;;;;;1.48;0.93;;;11.40;99.90;;;;;;4900505;29;20033;-85
2022/09/27 07:15:44;;;;;;;1.02;0.73;;;11.40;99.90;;;;;;4917016;29;20034;-85
2022/09/27 07:18:13;;;;;;;1.13;0.68;;;11.30;99.90;;;;;;4902044;29;20039;-85
2022/09/27 07:20:39;;;;;;;0.82;0.82;;;11.40;99.90;;;;;;4899093;29;20052;-85
2022/09/27 07:23:08;;;;;;;0.30;0.30;;;11.40;99.90;;;;;;4936727;29;20033;-86
2022/09/27 07:25:34;;;;;;;1.17;1.17;;;11.40;99.90;;;;;;4936478;29;20036;-85
2022/09/27 07:28:06;;;;;;;1.23;0.73;;;11.40;99.90;;;;;;4935605;29;20068;-85
2022/09/27 07:30:33;;;;;;;1.73;0.90;;;11.40;99.90;;;;;;4934525;29;20092;-85
2022/09/27 07:33:01;;;;;;;1.60;1.20;;;11.40;99.90;;;;;;4933607;29;20040;-85
2022/09/27 07:35:27;;;;;;;0.85;0.85;;;11.40;99.90;;;;;;4919703;29;20043;-85
2022/09/27 07:37:55;;;;;;;3.95;1.90;;;11.50;99.90;;;;;;4935762;29;20060;-85
2022/09/27 07:40:21;;;;;;;1.38;0.90;;;11.50;99.90;;;;;;4933033;29;20017;-85
2022/09/27 07:42:53;;;;;;;1.75;0.82;;;11.50;99.90;;;;;;4921840;29;20088;-85
2022/09/27 07:45:19;;;;;;;4.28;1.48;;;11.50;99.90;;;;;;4915802;29;20032;-85
2022/09/27 07:48:13;;;;;;;4.88;2.08;;;11.50;99.90;;;;;;4902550;29;20041;-85
2022/09/27 07:51:06;;;;;;;2.88;1.23;;;11.50;99.90;;;;;;4916062;29;20029;-85
2022/09/27 07:53:44;;;;;;;2.03;1.70;;;11.50;99.90;;;;;;4912933;29;20514;-85
2022/09/27 07:56:49;;;;;;;3.45;1.27;;;11.50;99.90;;;;;;4926350;29;20044;-86
2022/09/27 07:59:17;;;;;;;6.30;2.17;;;11.60;99.90;;;;;;4916923;29;20039;-85
2022/09/27 08:01:45;;;;;;;7.22;2.45;;;11.60;99.90;;;;;;4916180;29;20043;-86
2022/09/27 08:04:11;;;;;;;6.85;1.95;;;11.50;99.90;;;;;;4915563;29;20053;-85
2022/09/27 08:06:37;;;;;;;1.13;1.02;;;11.60;99.90;;;;;;4916022;29;20036;-85
2022/09/27 08:09:08;;;;;;;6.00;2.13;;;11.60;99.90;;;;;;4931202;29;20038;-85
2022/09/27 08:11:36;;;;;;;4.57;2.13;;;11.50;99.90;;;;;;4913842;29;20061;-86
2022/09/27 08:14:03;;;;;;;2.47;1.95;;;11.50;99.90;;;;;;4923037;29;20039;-85
2022/09/27 08:16:33;;;;;;;5.88;1.80;;;11.50;99.90;;;;;;4930122;29;20066;-87
2022/09/27 08:19:18;;;;;;;1.48;1.10;;;11.50;99.90;;;;;;4911915;29;20149;-87
2022/09/27 08:22:02;;;;;;;1.48;1.38;;;11.50;99.90;;;;;;4922960;29;20047;-86
2022/09/27 08:24:42;;;;;;;1.75;1.40;;;11.50;99.90;;;;;;4924576;29;20084;-87
2022/09/27 08:27:22;;;;;;;5.05;1.77;;;11.60;99.90;;;;;;4912010;29;20039;-87
2022/09/27 08:29:55;;;;;;;2.75;1.92;;;11.50;99.90;;;;;;4914016;29;20474;-86
2022/09/27 08:32:21;;;;;;;2.70;1.50;;;11.60;99.90;;;;;;4927667;29;20048;-87
2022/09/27 08:34:47;;;;;;;2.75;1.45;;;11.50;99.90;;;;;;4930326;29;20027;-87
2022/09/27 08:37:13;;;;;;;4.43;2.63;;;11.50;99.90;;;;;;4914357;29;20077;-87
2022/09/27 08:39:39;;;;;;;4.45;3.25;;;11.50;99.90;;;;;;4914447;29;20032;-87
2022/09/27 08:42:16;;;;;;;2.25;1.77;;;11.60;99.90;;;;;;4929586;29;20024;-87
2022/09/27 08:44:54;;;;;;;2.88;1.88;;;11.50;99.90;;;;;;4913630;29;20020;-87
2022/09/27 08:47:42;;;;;;;2.22;2.05;;;11.50;99.90;;;;;;4914343;29;20091;-87
2022/09/27 08:50:08;;;;;;;1.98;1.85;;;11.60;99.90;;;;;;4929760;29;20068;-87
2022/09/27 08:53:01;;;;;;;3.17;2.72;;;11.60;99.90;;;;;;4929243;29;20024;-87
2022/09/27 08:55:36;;;;;;;1.95;1.85;;;11.50;99.90;;;;;;4914114;29;20030;-87
2022/09/27 08:58:11;;;;;;;1.98;1.88;;;11.60;99.90;;;;;;4912895;29;20028;-86
2022/09/27 09:00:38;;;;;;;3.00;2.70;;;11.60;99.90;;;;;;4928530;29;20039;-87
2022/09/27 09:03:04;;;;;;;3.08;2.88;;;11.50;99.90;;;;;;4929430;29;20032;-87
2022/09/27 09:05:34;;;;;;;2.67;2.22;;;11.60;99.90;;;;;;4914230;29;20052;-88
2022/09/27 09:08:18;;;;;;;4.10;2.33;;;11.60;99.90;;;;;;4928989;29;20024;-87
2022/09/27 09:14:01;;;;;;;3.67;3.40;;;11.60;99.90;;;;;;4944306;29;20039;-87
2022/09/27 09:16:50;;;;;;;3.75;2.65;;;11.60;99.90;;;;;;4913666;29;20033;-87
2022/09/27 09:19:28;;;;;;;2.65;2.45;;;11.60;99.90;;;;;;4944876;29;20028;-87
2022/09/27 09:22:44;;;;;;;2.55;2.38;;;11.60;99.90;;;;;;4914531;29;20059;-87
2022/09/27 09:25:27;;;;;;;3.00;2.80;;;11.60;99.90;;;;;;4913421;29;20032;-87
2022/09/27 09:28:22;;;;;;;5.20;2.88;;;11.60;99.90;;;;;;4913163;29;20109;-86
2022/09/27 09:31:11;;;;;;;3.63;2.05;;;11.60;99.90;;;;;;4903375;29;20039;-87
2022/09/27 09:34:00;;;;;;;4.77;3.63;;;11.60;99.90;;;;;;4912711;29;20031;-87
2022/09/27 09:36:36;;;;;;;4.30;2.40;;;11.60;99.90;;;;;;4915267;29;20036;-86
2022/09/27 09:39:10;;;;;;;3.42;2.08;;;11.70;99.90;;;;;;4928393;29;20057;-87
2022/09/27 09:41:52;;;;;;;3.97;2.80;;;11.70;99.90;;;;;;4912769;29;20032;-86
2022/09/27 09:44:29;;;;;;;3.35;3.05;;;11.70;99.90;;;;;;4912693;29;20025;-87
2022/09/27 09:47:02;;;;;;;3.75;3.28;;;11.70;99.90;;;;;;4928468;29;20040;-87
2022/09/27 09:49:36;;;;;;;4.35;3.80;;;11.80;99.90;;;;;;4912140;29;20474;-87
2022/09/27 09:52:10;;;;;;;4.70;3.92;;;11.80;99.90;;;;;;4916954;29;20132;-87
2022/09/27 09:55:02;;;;;;;5.32;4.75;;;11.70;99.90;;;;;;4911041;29;20052;-87
2022/09/27 09:57:42;;;;;;;6.43;4.97;;;11.80;99.90;;;;;;4925174;29;20030;-87
2022/09/27 10:00:17;;;;;;;8.80;6.78;;;11.80;99.90;;;;;;4927360;29;20506;-87
2022/09/27 10:02:48;;;;;;;11.02;8.13;;;11.80;99.90;;;;;;4927905;29;20036;-87
2022/09/27 10:05:22;;;;;;;9.23;7.50;;;11.80;99.90;;;;;;4927945;29;20028;-88
2022/09/27 10:07:57;;;;;;;9.80;8.15;;;11.80;99.90;;;;;;4922713;29;20096;-87
2022/09/27 10:10:24;;;;;;;12.93;9.15;;;11.80;99.90;;;;;;4904550;29;20029;-87
2022/09/27 10:13:17;;;;;;;17.70;11.57;;;11.80;99.90;;;;;;4920975;29;20039;-86
2022/09/27 10:16:07;;;;;;;12.77;11.55;;;11.80;99.90;;;;;;4927923;29;20024;-88
2022/09/27 10:18:37;;;;;;;20.73;12.00;;;11.80;99.90;;;;;;4912669;29;20028;-88
2022/09/27 10:21:21;;;;;;;15.93;12.23;;;11.70;99.90;;;;;;4928064;29;20048;-87
2022/09/27 10:24:10;;;;;;;18.00;11.98;;;11.70;99.90;;;;;;4912265;29;20028;-87
2022/09/27 10:27:00;;;;;;;21.50;13.57;;;11.70;99.90;;;;;;4913274;29;20043;-87
2022/09/27 10:29:32;;;;;;;15.68;11.48;;;11.70;99.90;;;;;;4927057;29;20025;-87
2022/09/27 10:32:02;;;;;;;18.17;12.32;;;11.70;99.90;;;;;;4927293;29;20569;-87
2022/09/27 10:34:37;;;;;;;13.93;8.23;;;11.80;99.90;;;;;;4927689;29;20512;-87
2022/09/27 10:37:17;;;;;;;12.93;8.95;;;11.80;99.90;;;;;;4927936;29;20028;-88
2022/09/27 10:39:55;;;;;;;13.95;9.10;;;11.80;99.90;;;;;;4913565;29;20028;-87
2022/09/27 10:42:36;;;;;;;8.68;7.57;;;11.90;99.90;;;;;;4927874;29;20032;-88
2022/09/27 10:45:28;;;;;;;8.02;5.40;;;11.90;99.90;;;;;;4912394;29;20394;-87
2022/09/27 10:48:23;;;;;;;10.85;6.25;;;11.90;99.90;;;;;;4928595;29;20077;-88
2022/09/27 10:51:06;;;;;;;10.30;5.90;;;12.00;99.90;;;;;;4917140;29;20064;-87
2022/09/27 10:53:46;;;;;;;8.10;5.75;;;12.00;99.90;;;;;;4931079;29;20059;-87
2022/09/27 10:56:26;;;;;;;12.10;9.02;;;12.00;99.90;;;;;;4931818;29;20051;-88
2022/09/27 10:58:54;;;;;;;11.93;7.80;;;12.00;99.90;;;;;;4931184;29;20052;-88
2022/09/27 11:01:21;;;;;;;10.02;8.38;;;11.90;99.90;;;;;;4931648;29;20025;-88
2022/09/27 11:04:32;;;;;;;19.27;13.20;;;11.90;99.90;;;;;;4931787;29;20045;-88
2022/09/27 11:07:15;;;;;;;10.88;7.38;;;11.90;99.90;;;;;;4931429;29;20036;-87
2022/09/27 11:10:01;;;;;;;10.15;6.97;;;11.90;99.90;;;;;;4913385;29;20032;-87
2022/09/27 11:12:30;;;;;;;13.55;8.15;;;11.80;99.90;;;;;;4917473;29;20027;-87
2022/09/27 11:15:01;;;;;;;7.28;5.28;;;11.90;99.90;;;;;;4931656;29;20107;-87
2022/09/27 11:17:51;;;;;;;;;;;11.80;99.90;;;;;;4931955;29;20028;-87
2022/09/27 11:20:43;;;;;;;11.03;8.03;;;11.80;99.90;;;;;;4914651;29;20005;-86
2022/09/27 11:23:31;;;;;;;14.00;8.05;;;11.80;99.90;;;;;;4928886;29;20064;-87
2022/09/27 11:26:20;;;;;;;;;;;11.70;99.90;;;;;;4931325;29;20025;-87
2022/09/27 11:29:11;;;;;;;9.68;6.65;;;11.70;99.90;;;;;;4934266;29;19957;-87
2022/09/27 11:32:12;;;;;;;13.88;8.77;;;11.70;99.90;;;;;;4932459;29;20038;-86
2022/09/27 11:35:05;;;;;;;13.70;9.27;;;11.80;99.90;;;;;;4914689;29;20051;-86
2022/09/27 11:38:01;;;;;;;13.60;6.60;;;11.80;99.90;;;;;;4931197;29;20047;-86
2022/09/27 11:40:46;;;;;;;9.05;6.43;;;11.80;99.90;;;;;;4931213;29;20028;-86
2022/09/27 11:43:21;;;;;;;10.73;6.40;;;11.80;99.90;;;;;;4931360;29;20032;-86
2022/09/27 11:46:09;;;;;;;12.35;6.97;;;11.80;99.90;;;;;;4915096;29;20040;-86
2022/09/27 11:48:53;;;;;;;16.33;9.30;;;11.80;99.90;;;;;;4915816;29;20032;-86
2022/09/27 11:51:36;;;;;;;16.42;12.05;;;11.90;99.90;;;;;;4931090;29;20035;-87
2022/09/27 11:54:39;;;;;;;20.15;14.68;;;11.90;99.90;;;;;;4930629;29;20055;-87
2022/09/27 11:57:35;;;;;;;30.38;18.90;;;11.90;99.90;;;;;;4929998;29;20055;-86
2022/09/27 12:00:17;;;;;;;31.63;17.00;;;11.90;99.90;;;;;;4930565;29;20095;-86
2022/09/27 12:03:04;;;;;;;22.25;14.95;;;12.00;99.90;;;;;;4930744;29;20447;-86
2022/09/27 12:06:00;;;;;;;20.73;12.90;;;12.00;99.90;;;;;;4928950;29;20024;-86
2022/09/27 12:08:54;;;;;;;14.85;10.05;;;12.00;99.90;;;;;;4914761;29;20038;-87
2022/09/27 12:11:37;;;;;;;11.32;7.43;;;12.10;99.90;;;;;;4914749;29;20048;-86
2022/09/27 12:14:16;;;;;;;7.00;6.30;;;12.10;99.90;;;;;;4929215;29;20024;-87
2022/09/27 12:16:44;;;;;;;9.10;6.65;;;12.10;99.90;;;;;;4930424;29;20079;-86
2022/09/27 12:19:36;;;;;;;6.43;4.85;;;12.20;99.90;;;;;;4930436;29;20025;-86
2022/09/27 12:22:17;;;;;;;5.72;4.15;;;12.20;99.90;;;;;;4915434;29;20048;-86
2022/09/27 12:24:45;;;;;;;5.47;4.97;;;12.20;99.90;;;;;;4914929;29;20020;-86
2022/09/27 12:27:46;;;;;;;5.53;4.10;;;12.20;99.90;;;;;;4929241;29;20032;-86
2022/09/27 12:30:17;;;;;;;3.25;2.80;;;12.30;99.90;;;;;;4930111;29;20028;-86
2022/09/27 12:33:10;;;;;;;3.30;2.80;;;12.30;99.90;;;;;;4914153;29;20042;-86
2022/09/27 12:35:45;;;;;;;4.25;3.28;;;12.30;99.90;;;;;;4899190;29;20044;-85
2022/09/27 12:38:45;;;;;;;2.00;1.90;;;12.40;99.90;;;;;;4913899;29;20521;-86
2022/09/27 12:41:18;;;;;;;3.33;3.15;;;12.40;99.90;;;;;;4922455;29;20109;-87
2022/09/27 12:43:58;;;;;;;2.65;2.45;;;12.40;99.90;;;;;;4929162;29;20023;-86
2022/09/27 12:47:09;;;;;;;2.83;2.63;;;12.50;99.90;;;;;;4930055;29;20032;-87
2022/09/27 12:49:47;;;;;;;4.75;3.65;;;12.50;99.90;;;;;;4914150;29;20032;-86
2022/09/27 12:52:24;;;;;;;2.70;2.42;;;12.50;99.90;;;;;;4929811;29;20036;-86
2022/09/27 12:55:08;;;;;;;4.82;4.22;;;12.50;99.90;;;;;;4929013;29;20024;-86
2022/09/27 12:58:10;;;;;;;3.60;3.38;;;12.50;99.90;;;;;;4937959;29;20029;-86
2022/09/27 13:00:46;;;;;;;3.85;3.55;;;12.50;99.90;;;;;;4925329;29;20104;-85
2022/09/27 13:03:50;;;;;;;4.97;3.30;;;12.60;99.90;;;;;;4914215;29;20425;-87
2022/09/27 13:06:42;;;;;;;3.38;3.08;;;12.60;99.90;;;;;;4913816;29;20032;-86
2022/09/27 13:09:25;;;;;;;3.75;3.45;;;12.50;99.90;;;;;;4907257;29;20044;-86
2022/09/27 13:12:09;;;;;;;6.45;3.95;;;12.50;99.90;;;;;;4906657;29;20032;-86
2022/09/27 13:14:55;;;;;;;6.07;3.10;;;12.50;99.90;;;;;;4928899;29;20044;-86
2022/09/27 13:17:46;;;;;;;5.10;2.67;;;12.40;99.90;;;;;;4920990;29;20037;-87
2022/09/27 13:20:35;;;;;;;5.07;2.35;;;12.40;99.90;;;;;;4941548;29;20048;-87
2022/09/27 13:23:17;;;;;;;2.70;2.25;;;12.40;99.90;;;;;;4913773;29;20028;-86
2022/09/27 13:25:53;;;;;;;3.20;2.92;;;12.40;99.90;;;;;;4929489;29;20032;-86
2022/09/27 13:28:32;;;;;;;6.85;2.83;;;12.40;99.90;;;;;;4928790;29;20035;-86
2022/09/27 13:31:03;;;;;;;4.05;2.40;;;12.40;99.90;;;;;;4913988;29;20473;-87
2022/09/27 13:33:51;;;;;;;7.95;3.17;;;12.30;99.90;;;;;;4929033;29;20511;-86
2022/09/27 13:36:28;;;;;;;2.50;2.30;;;12.30;99.90;;;;;;4928747;29;20083;-87
2022/09/27 13:39:25;;;;;;;3.53;2.85;;;12.30;99.90;;;;;;4928986;29;20048;-86
2022/09/27 13:42:34;;;;;;;3.22;2.45;;;12.20;99.90;;;;;;4930415;29;20035;-87
2022/09/27 13:45:19;;;;;;;2.92;1.63;;;12.30;99.90;;;;;;4929171;29;20390;-87
2022/09/27 13:47:48;;;;;;;5.97;2.17;;;12.20;99.90;;;;;;4929181;29;20034;-87
2022/09/27 13:50:36;;;;;;;2.95;1.55;;;12.20;99.90;;;;;;4928526;29;20035;-87